Southern Ontario METAR Reports

CYSN - St.Catharines
Updated: 07/12/2020 12:00pm
Mostly cloudy
Mostly cloudy
 Wind from NW
Wind: NW 15 km/h
Temperature: 26°C
Dew Point: 17°C
Humidity: 58%
Barometer: 1006.1 hPa
Clouds: Mostly cloudy
Visibility: 24 km
Cloud details: Few Clouds 1829 m
Few Clouds 4877 m
Mostly cloudy 7620 m
2020/07/12 16:00 CYSN 121600Z 32008KT 270V340 15SM FEW060 FEW160 BKN250 26/17 A2971 RMK SC1AC1CI3 SLP061 DENSITY ALT 1900FT
CYHM - Hamilton
Updated: 07/12/2020 12:00pm
Mostly cloudy
Mostly cloudy
 Wind from W
Wind: W 19 km/h, Gust: 28 km/h
Temperature: 24°C
Dew Point: 17°C
Humidity: 65%
Barometer: 1007.5 hPa
Clouds: Mostly cloudy
Visibility: 24 km
Cloud details: Few Clouds 914 m
Mostly cloudy 7925 m
2020/07/12 16:00 CYHM 121600Z 27010G15KT 15SM FEW030 BKN260 24/17 A2975 RMK CU1CI6 SLP074 DENSITY ALT 2200FT
 
CYYZ - Toronto
Updated: 07/12/2020 12:00pm
Mostly cloudy
Mostly cloudy
 Wind from WNW
Wind: WNW 6 km/h
Temperature: 25°C
Dew Point: 18°C
Humidity: 65%
Barometer: 1006.4 hPa
Clouds: Mostly cloudy
Visibility: 24 km
Cloud details: Partly cloudy 914 m
Mostly cloudy 6706 m
2020/07/12 16:00 CYYZ 121600Z 30003KT 240V360 15SM SCT030 BKN220 25/18 A2972 RMK CU3CI4 SLP062 DENSITY ALT 2100FT
CYKF - Waterloo
Updated: 07/12/2020 12:00pm
Clear
Clear
 Wind from WNW
Wind: WNW 17 km/h
Temperature: 23°C
Dew Point: 16°C
Humidity: 65%
Barometer: 1007.8 hPa
Clouds: Clear
Visibility: 14 km
2020/07/12 16:00 CYKF 121600Z AUTO 29009KT 270V330 9SM CLR 23/16 A2976 RMK SLP075 DENSITY ALT 2300FT
 
CYXU - London
Updated: 07/12/2020 12:00pm
Overcast
Overcast
 Wind from W
Wind: W 13 km/h
Temperature: 23°C
Dew Point: 16°C
Humidity: 65%
Barometer: 1008.8 hPa
Clouds: Overcast
Visibility: 24 km
Cloud details: Partly cloudy 945 m
Overcast 7925 m
2020/07/12 16:00 CYXU 121600Z 27007KT 250V320 15SM SCT031 OVC260 23/16 A2979 RMK SC3CI5 SLP085 DENSITY ALT 2300FT
CYQG - Windsor
Updated: 07/12/2020 12:00pm
Mostly cloudy
Mostly cloudy
 Wind from W
Wind: W 15 km/h
Temperature: 25°C
Dew Point: 16°C
Humidity: 57%
Barometer: 1009.5 hPa
Clouds: Mostly cloudy
Visibility: 14 km
Cloud details: Mostly cloudy 6706 m
2020/07/12 16:00 CYQG 121600Z AUTO 28008KT 9SM BKN220 25/16 A2981 RMK SLP092 DENSITY ALT 2000FT
 
CYZR - Sarnia
Updated: 07/12/2020 12:00pm
Clear
Clear
 Wind from NW
Wind: NW 9 km/h
Temperature: 22°C
Dew Point: 16°C
Humidity: 69%
Barometer: 1009.1 hPa
Clouds: Clear
Visibility: 14 km
2020/07/12 16:00 CYZR 121600Z AUTO 32005KT 290V010 9SM CLR 22/16 A2980 RMK SLP090 DENSITY ALT 1700FT
CYVV - Wiarton
Updated: 07/12/2020 12:16pm
Rain showers, Mist, Overcast
Rain showers, Mist, Overcast
 Wind from W
Wind: W 9 km/h
Temperature: 19°C
Dew Point: 18°C
Humidity: 94%
Barometer: 1007.8 hPa
Summary: Rain showers, Mist
Clouds: Overcast
Visibility: 5 km
Cloud details: Overcast 610 m
2020/07/12 16:16 CYVV 121616Z 27005KT 3SM SHRA BR OVC020TCU 19/18 A2976 RMK TCU8 WND ESTD SLP077 DENSITY ALT 1600FT
 
CYPQ - Peterborough
Updated: 07/12/2020 12:00pm
Overcast
Overcast
 Wind from WNW
Wind: WNW 15 km/h, Gust: 28 km/h
Temperature: 24°C
Dew Point: 19°C
Humidity: 74%
Barometer: 1006.1 hPa
Clouds: Overcast
Visibility: 14 km
Cloud details: Overcast 1433 m
2020/07/12 16:00 CYPQ 121600Z AUTO 30008G15KT 290V350 9SM OVC047 24/19 A2971 RMK SLP061 DENSITY ALT 2000FT
CYTR - Trenton
Updated: 07/12/2020 12:00pm
Mostly cloudy
Mostly cloudy
 Wind from WNW
Wind: WNW 15 km/h, Gust: 28 km/h
Temperature: 26°C
Dew Point: 18°C
Humidity: 61%
Barometer: 1005.1 hPa
Clouds: Mostly cloudy
Visibility: 24 km
Cloud details: Partly cloudy 792 m
Mostly cloudy 2591 m
Mostly cloudy 7620 m
2020/07/12 16:00 CYTR 121600Z 30008G15KT 15SM SCT026 BKN085 BKN250 26/18 A2968 RMK CU3AC2CI2 SLP051